Time;durP1;ratioP1;P1;durP2;ratioP2;P2;SDS_P1;SDS_P2;PMS_P1;PMS_P2;Temp;Humidity;BMP_temperature;BMP_pressure;BME280_temperature;BME280_humidity;BME280_pressure;Samples;Min_cycle;Max_cycle;Signal;HPM_P1;HPM_P2
2023/08/08 00:01:22;;;;;;;1.83;0.93;;;;;;;;;;5030804;28;20446;-52
2023/08/08 00:03:50;;;;;;;2.40;1.17;;;;;;;;;;5031784;28;20442;-52
2023/08/08 00:06:18;;;;;;;2.47;1.20;;;;;;;;;;5031469;28;20446;-53
2023/08/08 00:08:45;;;;;;;3.30;1.13;;;;;;;;;;5031627;28;20490;-53
2023/08/08 00:11:13;;;;;;;2.10;1.10;;;;;;;;;;5031558;28;20442;-54
2023/08/08 00:13:40;;;;;;;2.93;1.23;;;;;;;;;;5031746;28;20716;-53
2023/08/08 00:16:07;;;;;;;2.87;0.90;;;;;;;;;;5030922;28;20536;-52
2023/08/08 00:18:34;;;;;;;2.20;1.00;;;;;;;;;;5030875;28;20557;-55
2023/08/08 00:21:02;;;;;;;6.20;1.40;;;;;;;;;;5031357;28;20484;-52
2023/08/08 00:23:30;;;;;;;2.10;0.90;;;;;;;;;;5031157;28;20438;-52
2023/08/08 00:25:57;;;;;;;2.13;1.23;;;;;;;;;;5031577;28;20516;-53
2023/08/08 00:28:25;;;;;;;3.30;1.50;;;;;;;;;;5031121;28;20537;-53
2023/08/08 00:30:52;;;;;;;2.23;1.23;;;;;;;;;;5031229;28;20446;-53
2023/08/08 00:33:19;;;;;;;3.50;1.10;;;;;;;;;;5031095;28;20435;-53
2023/08/08 00:35:46;;;;;;;2.00;1.27;;;;;;;;;;5031584;28;20541;-54
2023/08/08 00:38:14;;;;;;;2.20;1.00;;;;;;;;;;5031139;28;20542;-53
2023/08/08 00:40:43;;;;;;;2.60;1.40;;;;;;;;;;5030886;28;20549;-52
2023/08/08 00:43:10;;;;;;;2.17;1.10;;;;;;;;;;5031183;28;20478;-53
2023/08/08 00:45:37;;;;;;;2.13;1.00;;;;;;;;;;5031042;28;20481;-52
2023/08/08 00:48:05;;;;;;;2.77;1.30;;;;;;;;;;5031010;28;20575;-53
2023/08/08 00:50:32;;;;;;;2.60;1.30;;;;;;;;;;5030953;28;20513;-53
2023/08/08 00:53:00;;;;;;;2.20;1.00;;;;;;;;;;5030884;28;20446;-52
2023/08/08 00:55:27;;;;;;;6.63;1.07;;;;;;;;;;5029833;28;20530;-52
2023/08/08 00:57:56;;;;;;;1.87;0.87;;;;;;;;;;5030483;28;20490;-54
2023/08/08 01:00:23;;;;;;;2.10;1.20;;;;;;;;;;5029729;28;21057;-51
2023/08/08 01:02:50;;;;;;;2.27;1.20;;;;;;;;;;5030159;28;20525;-52
2023/08/08 01:05:17;;;;;;;2.33;0.93;;;;;;;;;;5030865;28;20442;-52
2023/08/08 01:07:49;;;;;;;2.53;1.10;;;;;;;;;;5030776;28;20489;-53
2023/08/08 01:10:17;;;;;;;1.93;1.07;;;;;;;;;;5030639;28;20529;-54
2023/08/08 01:12:47;;;;;;;2.60;1.03;;;;;;;;;;5030365;28;20512;-53
2023/08/08 01:15:16;;;;;;;2.97;1.00;;;;;;;;;;5030510;28;20525;-53
2023/08/08 01:17:44;;;;;;;2.70;1.07;;;;;;;;;;5030459;28;20525;-53
2023/08/08 01:20:13;;;;;;;2.20;1.00;;;;;;;;;;5030172;28;20561;-54
2023/08/08 01:22:41;;;;;;;2.80;1.00;;;;;;;;;;5030254;28;20495;-53
2023/08/08 01:25:11;;;;;;;2.10;1.20;;;;;;;;;;5030823;28;20477;-55
2023/08/08 01:27:38;;;;;;;3.43;1.17;;;;;;;;;;5030189;28;20521;-53
2023/08/08 01:30:06;;;;;;;2.23;1.30;;;;;;;;;;5029889;28;20453;-53
2023/08/08 01:32:33;;;;;;;2.10;1.20;;;;;;;;;;5029618;28;20454;-54
2023/08/08 01:35:00;;;;;;;4.87;1.30;;;;;;;;;;5030552;28;20470;-54
2023/08/08 01:37:31;;;;;;;1.70;1.00;;;;;;;;;;5030508;28;20462;-56
2023/08/08 01:39:59;;;;;;;2.10;0.80;;;;;;;;;;5030189;28;20474;-57
2023/08/08 01:42:28;;;;;;;1.90;1.00;;;;;;;;;;5029692;28;21047;-54
2023/08/08 01:44:56;;;;;;;2.77;1.17;;;;;;;;;;5029686;28;20446;-55
2023/08/08 01:47:23;;;;;;;1.80;1.00;;;;;;;;;;5029891;28;20472;-52
2023/08/08 01:49:50;;;;;;;2.20;0.97;;;;;;;;;;5029820;28;20454;-53
2023/08/08 01:52:17;;;;;;;2.30;1.00;;;;;;;;;;5029850;28;21009;-52
2023/08/08 01:54:45;;;;;;;3.20;1.30;;;;;;;;;;5030391;28;20450;-54
2023/08/08 01:57:12;;;;;;;2.40;1.10;;;;;;;;;;5029791;28;20473;-53
2023/08/08 01:59:41;;;;;;;2.20;1.20;;;;;;;;;;5029729;28;20612;-53
2023/08/08 02:02:08;;;;;;;2.80;1.10;;;;;;;;;;5028781;28;20474;-54
2023/08/08 02:04:35;;;;;;;2.10;1.30;;;;;;;;;;5029818;28;20534;-53
2023/08/08 02:07:03;;;;;;;1.80;1.20;;;;;;;;;;5031667;28;20434;-52
2023/08/08 02:09:30;;;;;;;3.50;1.00;;;;;;;;;;5033720;28;20537;-55
2023/08/08 02:11:57;;;;;;;1.90;1.13;;;;;;;;;;5033925;28;20484;-53
2023/08/08 02:14:24;;;;;;;2.20;1.30;;;;;;;;;;5033554;28;20442;-54
2023/08/08 02:16:53;;;;;;;3.83;1.20;;;;;;;;;;5045985;28;20520;-53
2023/08/08 02:19:20;;;;;;;2.70;1.23;;;;;;;;;;5042578;23;20591;-82
2023/08/08 02:21:47;;;;;;;2.93;1.37;;;;;;;;;;4976754;28;20448;-82
2023/08/08 02:24:15;;;;;;;2.00;1.03;;;;;;;;;;4976816;28;20472;-82
2023/08/08 02:26:42;;;;;;;1.80;1.10;;;;;;;;;;4977317;28;20503;-82
2023/08/08 02:29:09;;;;;;;2.03;1.03;;;;;;;;;;4977579;28;20480;-82
2023/08/08 02:34:19;;;;;;;2.07;1.00;;;;;;;;;;5012494;28;20485;-56
2023/08/08 02:36:46;;;;;;;2.20;1.10;;;;;;;;;;5013270;28;20447;-56
2023/08/08 02:39:13;;;;;;;2.20;0.93;;;;;;;;;;5013763;28;20491;-57
2023/08/08 02:41:40;;;;;;;3.13;1.03;;;;;;;;;;5011760;28;20471;-56
2023/08/08 02:44:08;;;;;;;1.90;0.93;;;;;;;;;;5013010;28;20527;-56
2023/08/08 02:46:37;;;;;;;1.80;1.10;;;;;;;;;;5010782;28;20534;-56
2023/08/08 02:49:04;;;;;;;2.03;1.03;;;;;;;;;;5013657;28;20475;-56
2023/08/08 02:51:33;;;;;;;1.97;1.20;;;;;;;;;;5013470;28;20495;-56
2023/08/08 02:54:00;;;;;;;4.03;1.13;;;;;;;;;;5013089;28;20528;-57
2023/08/08 02:56:27;;;;;;;1.80;0.83;;;;;;;;;;5012360;28;20493;-55
2023/08/08 02:58:55;;;;;;;2.10;1.10;;;;;;;;;;5007647;28;20550;-56
2023/08/08 03:01:22;;;;;;;2.17;1.30;;;;;;;;;;4993210;28;20508;-57
2023/08/08 03:03:49;;;;;;;3.60;1.77;;;;;;;;;;4994240;28;20448;-56
2023/08/08 03:06:16;;;;;;;1.90;0.90;;;;;;;;;;4994665;28;21047;-56
2023/08/08 03:08:45;;;;;;;1.80;0.90;;;;;;;;;;5013163;28;20503;-58
2023/08/08 03:11:12;;;;;;;2.63;1.13;;;;;;;;;;5013085;28;20514;-58
2023/08/08 03:13:39;;;;;;;2.10;1.07;;;;;;;;;;5013369;28;20505;-57
2023/08/08 03:16:07;;;;;;;2.03;1.27;;;;;;;;;;5012975;28;20522;-57
2023/08/08 03:18:34;;;;;;;2.73;1.00;;;;;;;;;;5011948;28;20529;-57
2023/08/08 03:21:01;;;;;;;2.30;1.07;;;;;;;;;;5012786;28;20570;-57
2023/08/08 03:23:28;;;;;;;2.30;1.10;;;;;;;;;;5013106;28;20451;-57
2023/08/08 03:25:57;;;;;;;2.77;1.50;;;;;;;;;;5013011;28;20466;-57
2023/08/08 03:28:24;;;;;;;4.03;1.00;;;;;;;;;;5013135;28;20554;-57
2023/08/08 03:30:51;;;;;;;2.87;0.97;;;;;;;;;;5004562;28;20522;-57
2023/08/08 03:33:19;;;;;;;2.33;0.90;;;;;;;;;;5012441;28;20879;-56
2023/08/08 03:35:46;;;;;;;1.80;0.90;;;;;;;;;;5012947;28;20960;-57
2023/08/08 03:38:13;;;;;;;2.37;1.23;;;;;;;;;;5012945;28;20526;-58
2023/08/08 03:40:40;;;;;;;2.47;1.00;;;;;;;;;;4995925;28;20579;-57
2023/08/08 03:43:09;;;;;;;2.97;1.17;;;;;;;;;;4993275;28;20448;-57
2023/08/08 03:45:36;;;;;;;2.50;1.40;;;;;;;;;;4993109;28;20471;-55
2023/08/08 03:48:04;;;;;;;2.10;1.20;;;;;;;;;;4993148;28;21127;-57
2023/08/08 03:50:31;;;;;;;2.80;1.27;;;;;;;;;;4992834;28;20527;-56
2023/08/08 03:52:58;;;;;;;1.53;0.80;;;;;;;;;;4993144;28;20476;-57
2023/08/08 03:55:26;;;;;;;3.07;1.30;;;;;;;;;;4992233;28;20436;-57
2023/08/08 03:57:53;;;;;;;2.03;1.10;;;;;;;;;;4992854;28;20450;-58
2023/08/08 04:00:22;;;;;;;2.00;1.13;;;;;;;;;;5003956;28;20565;-57
2023/08/08 04:02:49;;;;;;;2.53;1.20;;;;;;;;;;4992847;28;20956;-56
2023/08/08 04:05:16;;;;;;;2.63;1.37;;;;;;;;;;4992790;28;21008;-55
2023/08/08 04:07:44;;;;;;;2.53;1.20;;;;;;;;;;4993332;28;20598;-57
2023/08/08 04:10:11;;;;;;;5.03;1.57;;;;;;;;;;4992789;28;20511;-56
2023/08/08 04:12:38;;;;;;;1.97;1.03;;;;;;;;;;4997421;28;20483;-56
2023/08/08 04:15:06;;;;;;;2.00;1.07;;;;;;;;;;5009654;28;20479;-56
2023/08/08 04:17:35;;;;;;;3.10;1.30;;;;;;;;;;4996492;28;20448;-56
2023/08/08 04:20:02;;;;;;;2.00;1.00;;;;;;;;;;4998701;28;20573;-56
2023/08/08 04:22:29;;;;;;;2.20;1.00;;;;;;;;;;5003652;28;20446;-57
2023/08/08 04:24:57;;;;;;;1.93;1.20;;;;;;;;;;4992360;28;20479;-55
2023/08/08 04:27:24;;;;;;;2.77;1.20;;;;;;;;;;4991845;28;20456;-56
2023/08/08 04:29:51;;;;;;;2.50;1.20;;;;;;;;;;4999292;28;20638;-56
2023/08/08 04:32:19;;;;;;;2.30;1.30;;;;;;;;;;4996520;28;20917;-56
2023/08/08 04:34:47;;;;;;;1.83;1.00;;;;;;;;;;4992215;28;20531;-58
2023/08/08 04:37:14;;;;;;;2.43;0.90;;;;;;;;;;4993072;28;20487;-58
2023/08/08 04:39:42;;;;;;;1.90;0.90;;;;;;;;;;4996102;28;20550;-57
2023/08/08 04:42:09;;;;;;;2.60;0.97;;;;;;;;;;5011119;28;21005;-57
2023/08/08 04:44:36;;;;;;;2.03;1.00;;;;;;;;;;5011596;28;20531;-56
2023/08/08 04:47:03;;;;;;;2.37;1.23;;;;;;;;;;5011648;28;20891;-57
2023/08/08 04:49:31;;;;;;;2.20;1.10;;;;;;;;;;5008482;28;20532;-57
2023/08/08 04:51:59;;;;;;;2.27;1.37;;;;;;;;;;4991825;28;20526;-57
2023/08/08 04:54:26;;;;;;;2.13;1.00;;;;;;;;;;4993654;28;20470;-55
2023/08/08 04:56:54;;;;;;;1.90;1.10;;;;;;;;;;4999485;28;20471;-55
2023/08/08 04:59:21;;;;;;;1.87;1.03;;;;;;;;;;4996487;28;20551;-56
2023/08/08 05:01:48;;;;;;;2.30;1.13;;;;;;;;;;4996330;28;20472;-56
2023/08/08 05:04:15;;;;;;;1.60;0.80;;;;;;;;;;5006740;28;20443;-55
2023/08/08 05:06:42;;;;;;;1.77;1.17;;;;;;;;;;5002077;28;20534;-55
2023/08/08 05:09:11;;;;;;;2.00;1.10;;;;;;;;;;4999119;28;20494;-58
2023/08/08 05:11:38;;;;;;;1.90;1.20;;;;;;;;;;5007385;28;20478;-57
2023/08/08 05:14:05;;;;;;;1.80;1.00;;;;;;;;;;5011063;28;20518;-57
2023/08/08 05:16:33;;;;;;;2.17;1.20;;;;;;;;;;5008659;28;21017;-56
2023/08/08 05:19:00;;;;;;;3.80;1.50;;;;;;;;;;5001907;28;20522;-56
2023/08/08 05:21:27;;;;;;;2.23;1.07;;;;;;;;;;4999671;28;20529;-56
2023/08/08 05:23:54;;;;;;;2.30;1.13;;;;;;;;;;5000444;28;20467;-57
2023/08/08 05:26:23;;;;;;;3.43;1.17;;;;;;;;;;5000296;28;20467;-56
2023/08/08 05:28:50;;;;;;;2.70;1.23;;;;;;;;;;5000583;28;20510;-56
2023/08/08 05:31:17;;;;;;;1.90;1.30;;;;;;;;;;4997449;28;20534;-55
2023/08/08 05:33:45;;;;;;;1.90;1.00;;;;;;;;;;5002527;28;20452;-57
2023/08/08 05:36:12;;;;;;;1.83;1.13;;;;;;;;;;4991402;28;20475;-55
2023/08/08 05:38:40;;;;;;;1.93;1.07;;;;;;;;;;4991254;28;20519;-55
2023/08/08 05:41:08;;;;;;;2.50;1.70;;;;;;;;;;4992260;28;20480;-57
2023/08/08 05:43:36;;;;;;;3.53;2.33;;;;;;;;;;4997907;28;20444;-58
2023/08/08 05:46:03;;;;;;;3.83;1.90;;;;;;;;;;5000869;28;20540;-55
2023/08/08 05:48:31;;;;;;;2.90;1.67;;;;;;;;;;5003732;28;20518;-55
2023/08/08 05:50:59;;;;;;;2.00;1.50;;;;;;;;;;5001637;28;20474;-57
2023/08/08 05:53:26;;;;;;;2.10;1.40;;;;;;;;;;5014363;28;20979;-56
2023/08/08 05:55:54;;;;;;;1.80;1.20;;;;;;;;;;4997663;28;20539;-56
2023/08/08 05:58:22;;;;;;;3.10;1.23;;;;;;;;;;4996889;28;20544;-55
2023/08/08 06:00:51;;;;;;;2.43;1.20;;;;;;;;;;5008885;28;20471;-58
2023/08/08 06:03:18;;;;;;;2.63;1.30;;;;;;;;;;4999244;28;20475;-57
2023/08/08 06:05:46;;;;;;;2.77;1.47;;;;;;;;;;5007311;28;20448;-56
2023/08/08 06:08:14;;;;;;;2.57;1.23;;;;;;;;;;4997359;28;20439;-57
2023/08/08 06:10:41;;;;;;;1.93;1.00;;;;;;;;;;5013128;28;21011;-56
2023/08/08 06:13:09;;;;;;;1.90;1.00;;;;;;;;;;5013529;28;20526;-57
2023/08/08 06:15:36;;;;;;;2.40;1.23;;;;;;;;;;5015415;28;20530;-56
2023/08/08 06:18:05;;;;;;;2.43;1.20;;;;;;;;;;5015344;28;20505;-57
2023/08/08 06:20:32;;;;;;;2.60;1.40;;;;;;;;;;5013530;28;20534;-55
2023/08/08 06:22:59;;;;;;;3.30;1.13;;;;;;;;;;5015488;28;20447;-56
2023/08/08 06:25:27;;;;;;;2.40;1.30;;;;;;;;;;5006760;28;20451;-56
2023/08/08 06:27:54;;;;;;;2.77;1.23;;;;;;;;;;4997381;28;20439;-57
2023/08/08 06:30:21;;;;;;;3.47;1.73;;;;;;;;;;4997321;28;20821;-56
2023/08/08 06:32:48;;;;;;;2.83;1.50;;;;;;;;;;5005593;28;20478;-55
2023/08/08 06:35:18;;;;;;;2.50;1.50;;;;;;;;;;5008494;28;20471;-58
2023/08/08 06:37:45;;;;;;;2.57;1.20;;;;;;;;;;5012650;28;20966;-57
2023/08/08 06:40:13;;;;;;;2.20;1.30;;;;;;;;;;5016672;28;20525;-57
2023/08/08 06:42:40;;;;;;;2.93;1.40;;;;;;;;;;5014308;28;20479;-57
2023/08/08 06:45:09;;;;;;;1.90;1.10;;;;;;;;;;5016104;28;20521;-57
2023/08/08 06:47:37;;;;;;;2.07;1.20;;;;;;;;;;5014275;28;20455;-57
2023/08/08 06:50:05;;;;;;;2.90;1.13;;;;;;;;;;5006918;28;20466;-58
2023/08/08 06:52:33;;;;;;;2.30;1.10;;;;;;;;;;5015046;28;20501;-57
2023/08/08 06:55:01;;;;;;;1.97;1.20;;;;;;;;;;5002929;28;20531;-57
2023/08/08 06:57:28;;;;;;;4.23;1.40;;;;;;;;;;4994943;28;20452;-57
2023/08/08 06:59:55;;;;;;;2.83;1.30;;;;;;;;;;4993695;28;20495;-56
2023/08/08 07:02:22;;;;;;;2.50;1.20;;;;;;;;;;5005230;28;20905;-57
2023/08/08 07:04:50;;;;;;;2.10;1.10;;;;;;;;;;5005251;28;20988;-57
2023/08/08 07:07:17;;;;;;;2.10;1.00;;;;;;;;;;5005188;28;20443;-58
2023/08/08 07:09:46;;;;;;;2.50;1.50;;;;;;;;;;5011832;28;20455;-57
2023/08/08 07:12:13;;;;;;;2.63;1.17;;;;;;;;;;5011717;28;20523;-58
2023/08/08 07:14:40;;;;;;;5.73;1.40;;;;;;;;;;5011859;28;20483;-57
2023/08/08 07:17:07;;;;;;;2.00;1.00;;;;;;;;;;5010908;28;20514;-55
2023/08/08 07:19:34;;;;;;;2.13;0.90;;;;;;;;;;5013329;28;20550;-55
2023/08/08 07:22:02;;;;;;;2.07;0.90;;;;;;;;;;5003772;28;21091;-56
2023/08/08 07:24:29;;;;;;;2.03;0.97;;;;;;;;;;4994532;28;20444;-56
2023/08/08 07:26:58;;;;;;;2.60;1.20;;;;;;;;;;4992184;28;20540;-55
2023/08/08 07:29:25;;;;;;;2.37;1.33;;;;;;;;;;5010123;28;20975;-55
2023/08/08 07:31:53;;;;;;;2.20;1.30;;;;;;;;;;5003390;28;20736;-57
2023/08/08 07:34:20;;;;;;;2.20;0.90;;;;;;;;;;5003773;28;20467;-56
2023/08/08 07:36:48;;;;;;;3.20;1.30;;;;;;;;;;4998273;28;20531;-55
2023/08/08 07:39:15;;;;;;;2.17;1.10;;;;;;;;;;4999981;28;20962;-57
2023/08/08 07:41:42;;;;;;;3.80;1.27;;;;;;;;;;5001095;28;20896;-56
2023/08/08 07:44:11;;;;;;;1.93;0.90;;;;;;;;;;4999681;28;21092;-56
2023/08/08 07:46:38;;;;;;;2.13;1.20;;;;;;;;;;5012660;28;20435;-56
2023/08/08 07:49:06;;;;;;;1.70;1.00;;;;;;;;;;5002752;28;20468;-56
2023/08/08 07:51:33;;;;;;;2.53;1.10;;;;;;;;;;4991884;28;20470;-57
2023/08/08 07:54:01;;;;;;;2.00;1.00;;;;;;;;;;4993407;28;20557;-56
2023/08/08 07:56:28;;;;;;;2.37;1.20;;;;;;;;;;4993071;28;20452;-55
2023/08/08 07:58:56;;;;;;;2.43;1.03;;;;;;;;;;4995520;28;20464;-56
2023/08/08 08:01:27;;;;;;;2.50;1.10;;;;;;;;;;5006385;28;20483;-56
2023/08/08 08:03:54;;;;;;;2.10;1.00;;;;;;;;;;5010981;28;20443;-55
2023/08/08 08:06:21;;;;;;;1.77;0.87;;;;;;;;;;4993323;28;20663;-56
2023/08/08 08:08:48;;;;;;;1.77;0.90;;;;;;;;;;4999488;28;20459;-56
2023/08/08 08:11:16;;;;;;;2.00;1.00;;;;;;;;;;5011815;28;21010;-56
2023/08/08 08:13:43;;;;;;;2.07;1.20;;;;;;;;;;5007097;28;20486;-57
2023/08/08 08:16:11;;;;;;;2.90;1.20;;;;;;;;;;5000873;28;20472;-56
2023/08/08 08:18:39;;;;;;;2.00;1.10;;;;;;;;;;5010090;23;20290;-57
2023/08/08 08:21:07;;;;;;;3.58;1.00;;;;;;;;;;4989833;28;20480;-56
2023/08/08 08:23:34;;;;;;;2.43;0.90;;;;;;;;;;4991772;28;20255;-57
2023/08/08 08:26:01;;;;;;;2.93;1.30;;;;;;;;;;4992463;28;20455;-56
2023/08/08 08:28:29;;;;;;;2.00;1.00;;;;;;;;;;4992231;28;20479;-57
2023/08/08 08:30:56;;;;;;;2.37;1.23;;;;;;;;;;4991847;28;20444;-57
2023/08/08 08:33:23;;;;;;;1.97;1.00;;;;;;;;;;4992260;28;20821;-57
2023/08/08 08:35:52;;;;;;;2.20;1.13;;;;;;;;;;4991873;28;20471;-55
2023/08/08 08:38:19;;;;;;;2.40;1.20;;;;;;;;;;4992025;28;20448;-56
2023/08/08 08:40:48;;;;;;;2.00;1.10;;;;;;;;;;4987527;28;20554;-56
2023/08/08 08:43:15;;;;;;;2.27;1.10;;;;;;;;;;4989036;28;20992;-56
2023/08/08 08:45:44;;;;;;;2.20;1.20;;;;;;;;;;4990584;28;20523;-55
2023/08/08 08:48:12;;;;;;;2.73;1.10;;;;;;;;;;4980738;28;20442;-55
2023/08/08 08:50:41;;;;;;;2.50;1.17;;;;;;;;;;4989627;28;20464;-56
2023/08/08 08:53:10;;;;;;;1.80;1.10;;;;;;;;;;4986677;28;20448;-54
2023/08/08 08:55:37;;;;;;;3.10;1.10;;;;;;;;;;4989452;28;20472;-56
2023/08/08 08:58:05;;;;;;;2.97;1.40;;;;;;;;;;4988226;28;20448;-55
2023/08/08 09:00:32;;;;;;;2.53;1.20;;;;;;;;;;4988084;28;20551;-56
2023/08/08 09:02:59;;;;;;;2.50;1.63;;;;;;;;;;4990107;28;20479;-56
2023/08/08 09:05:27;;;;;;;1.90;1.30;;;;;;;;;;4991389;28;20440;-53
2023/08/08 09:07:54;;;;;;;2.83;1.30;;;;;;;;;;4991034;28;20535;-56
2023/08/08 09:10:23;;;;;;;2.30;1.20;;;;;;;;;;4990837;28;20845;-55
2023/08/08 09:12:50;;;;;;;2.20;1.37;;;;;;;;;;4989625;28;20527;-55
2023/08/08 09:15:18;;;;;;;3.63;1.40;;;;;;;;;;4991009;28;20448;-54
2023/08/08 09:17:45;;;;;;;2.50;1.40;;;;;;;;;;4984539;28;20473;-57
2023/08/08 09:20:13;;;;;;;1.93;1.20;;;;;;;;;;4988554;28;20555;-56
2023/08/08 09:22:40;;;;;;;1.80;1.10;;;;;;;;;;4989739;28;20554;-54
2023/08/08 09:25:08;;;;;;;2.20;1.43;;;;;;;;;;4990357;28;20471;-55
2023/08/08 09:27:36;;;;;;;2.40;1.30;;;;;;;;;;4987471;28;20451;-56
2023/08/08 09:30:04;;;;;;;2.63;1.37;;;;;;;;;;4989994;28;20587;-56
2023/08/08 09:32:32;;;;;;;2.30;1.30;;;;;;;;;;4990055;28;20467;-55
2023/08/08 09:34:59;;;;;;;1.90;1.00;;;;;;;;;;4989702;28;20781;-56
2023/08/08 09:37:27;;;;;;;2.30;1.13;;;;;;;;;;4989829;28;20503;-54
2023/08/08 09:39:58;;;;;;;2.50;1.27;;;;;;;;;;4988009;28;20850;-54
2023/08/08 09:42:25;;;;;;;2.90;1.47;;;;;;;;;;4989744;28;20511;-55
2023/08/08 09:44:54;;;;;;;2.70;1.30;;;;;;;;;;4981890;28;20945;-56
2023/08/08 09:47:22;;;;;;;2.07;1.20;;;;;;;;;;4984209;28;20790;-55
2023/08/08 09:49:50;;;;;;;4.00;1.40;;;;;;;;;;4978553;28;20461;-55
2023/08/08 09:52:17;;;;;;;2.77;1.20;;;;;;;;;;4975676;28;20503;-56
2023/08/08 09:54:44;;;;;;;2.00;1.20;;;;;;;;;;4982438;28;20511;-55
2023/08/08 09:57:11;;;;;;;2.40;1.17;;;;;;;;;;4990515;28;20475;-57
2023/08/08 09:59:39;;;;;;;2.37;1.03;;;;;;;;;;4990126;28;20492;-56
2023/08/08 10:02:10;;;;;;;3.10;1.57;;;;;;;;;;4983848;28;21016;-55
2023/08/08 10:04:37;;;;;;;2.27;1.20;;;;;;;;;;4987477;28;20472;-55
2023/08/08 10:07:04;;;;;;;2.57;1.47;;;;;;;;;;4989199;28;20474;-56
2023/08/08 10:09:33;;;;;;;2.60;1.93;;;;;;;;;;4988690;28;20460;-56
2023/08/08 10:12:00;;;;;;;2.70;1.50;;;;;;;;;;4989279;28;20440;-54
2023/08/08 10:14:31;;;;;;;1.90;1.00;;;;;;;;;;4989850;28;20483;-56
2023/08/08 10:16:58;;;;;;;2.30;1.30;;;;;;;;;;4987485;28;20531;-54
2023/08/08 10:19:27;;;;;;;2.00;0.98;;;;;;;;;;4951195;28;1114815;-56
2023/08/08 10:21:58;;;;;;;2.67;0.93;;;;;;;;;;4989595;28;20701;-54
2023/08/08 10:24:25;;;;;;;2.13;1.10;;;;;;;;;;4982921;28;20436;-54
2023/08/08 10:26:53;;;;;;;2.47;1.00;;;;;;;;;;4986616;28;20809;-56
2023/08/08 10:29:21;;;;;;;2.00;1.10;;;;;;;;;;4989316;28;20499;-53
2023/08/08 10:31:53;;;;;;;2.30;1.10;;;;;;;;;;4993637;28;20471;-56
2023/08/08 10:34:22;;;;;;;2.40;1.10;;;;;;;;;;4994228;28;20531;-57
2023/08/08 10:36:53;;;;;;;2.30;1.10;;;;;;;;;;4992113;28;20440;-55
2023/08/08 10:39:21;;;;;;;2.30;0.90;;;;;;;;;;4993301;28;20581;-54
2023/08/08 10:41:49;;;;;;;2.23;1.17;;;;;;;;;;4993726;28;20474;-56
2023/08/08 10:44:23;;;;;;;4.40;1.20;;;;;;;;;;4993908;28;20444;-56
2023/08/08 10:46:51;;;;;;;2.33;1.20;;;;;;;;;;4993175;28;20811;-54
2023/08/08 10:49:19;;;;;;;2.80;1.00;;;;;;;;;;4991922;28;20632;-54
2023/08/08 10:51:47;;;;;;;2.83;1.20;;;;;;;;;;4990202;28;20443;-55
2023/08/08 10:54:16;;;;;;;2.10;0.87;;;;;;;;;;4993736;28;20519;-56
2023/08/08 10:56:49;;;;;;;2.80;1.27;;;;;;;;;;4993019;28;20440;-56
2023/08/08 10:59:18;;;;;;;2.40;1.20;;;;;;;;;;4991464;28;20881;-54
2023/08/08 11:01:47;;;;;;;1.90;1.10;;;;;;;;;;4991824;28;20456;-54
2023/08/08 11:04:15;;;;;;;2.53;1.10;;;;;;;;;;4989102;28;20456;-56
2023/08/08 11:06:42;;;;;;;2.10;1.07;;;;;;;;;;4984327;28;20491;-56
2023/08/08 11:09:10;;;;;;;2.10;1.00;;;;;;;;;;4989864;28;20543;-56
2023/08/08 11:11:40;;;;;;;2.07;1.20;;;;;;;;;;4982257;28;20454;-56
2023/08/08 11:14:11;;;;;;;2.10;1.10;;;;;;;;;;4981904;28;20607;-55
2023/08/08 11:16:38;;;;;;;1.80;1.07;;;;;;;;;;4980399;28;20723;-57
2023/08/08 11:19:05;;;;;;;2.83;1.63;;;;;;;;;;4990222;28;20468;-55
2023/08/08 11:21:35;;;;;;;2.57;1.33;;;;;;;;;;4991935;28;20579;-54
2023/08/08 11:24:02;;;;;;;3.30;1.50;;;;;;;;;;4985670;28;20476;-56
2023/08/08 11:26:31;;;;;;;2.20;1.10;;;;;;;;;;4987098;28;20535;-56
2023/08/08 11:29:00;;;;;;;2.60;1.37;;;;;;;;;;4986872;28;20526;-56
2023/08/08 11:31:28;;;;;;;2.03;0.90;;;;;;;;;;4984472;28;20457;-55
2023/08/08 11:33:55;;;;;;;2.07;1.00;;;;;;;;;;4985239;28;20441;-55
2023/08/08 11:36:23;;;;;;;2.57;1.30;;;;;;;;;;4989860;28;20543;-54
2023/08/08 11:38:51;;;;;;;2.33;1.17;;;;;;;;;;4988627;28;20475;-54
2023/08/08 11:41:19;;;;;;;2.50;1.40;;;;;;;;;;4990725;28;20495;-54
2023/08/08 11:43:47;;;;;;;3.07;1.43;;;;;;;;;;4992042;28;20575;-54
2023/08/08 11:46:17;;;;;;;3.90;1.63;;;;;;;;;;4992559;28;20444;-54
2023/08/08 11:48:44;;;;;;;2.47;1.53;;;;;;;;;;4984470;28;20999;-55
2023/08/08 11:51:11;;;;;;;3.60;1.40;;;;;;;;;;4992195;28;20482;-56
2023/08/08 11:53:49;;;;;;;2.10;1.20;;;;;;;;;;4993395;28;20878;-52
2023/08/08 11:56:17;;;;;;;2.63;1.30;;;;;;;;;;4993130;28;20950;-55
2023/08/08 11:58:44;;;;;;;2.10;1.17;;;;;;;;;;4992694;28;20476;-55
2023/08/08 12:01:13;;;;;;;2.20;1.20;;;;;;;;;;4992456;28;20480;-57
2023/08/08 12:03:42;;;;;;;2.77;1.57;;;;;;;;;;4992885;28;20549;-56
2023/08/08 12:06:14;;;;;;;2.90;1.23;;;;;;;;;;4992649;28;20781;-55
2023/08/08 12:08:42;;;;;;;2.50;1.43;;;;;;;;;;4990237;28;20961;-56
2023/08/08 12:11:10;;;;;;;2.40;1.47;;;;;;;;;;4992125;28;20468;-56
2023/08/08 12:13:39;;;;;;;1.80;1.00;;;;;;;;;;4989831;28;20433;-55
2023/08/08 12:16:07;;;;;;;2.97;1.40;;;;;;;;;;4992156;28;20801;-55
2023/08/08 12:18:34;;;;;;;2.10;1.30;;;;;;;;;;4992331;28;20531;-56
2023/08/08 12:21:03;;;;;;;2.50;1.10;;;;;;;;;;4992685;28;20995;-55
2023/08/08 12:23:30;;;;;;;2.57;1.20;;;;;;;;;;4992174;28;20480;-55
2023/08/08 12:25:59;;;;;;;2.30;1.27;;;;;;;;;;4991976;28;20436;-56
2023/08/08 12:28:26;;;;;;;2.67;1.03;;;;;;;;;;4992023;28;20967;-56
2023/08/08 12:30:53;;;;;;;2.40;1.10;;;;;;;;;;4991860;28;20535;-56
2023/08/08 12:33:21;;;;;;;2.77;1.10;;;;;;;;;;4989534;28;20920;-57
2023/08/08 12:35:48;;;;;;;2.60;1.30;;;;;;;;;;4991970;28;20519;-56
2023/08/08 12:38:17;;;;;;;2.00;0.90;;;;;;;;;;4991461;28;20864;-57
2023/08/08 12:40:44;;;;;;;2.40;1.27;;;;;;;;;;4988764;28;20507;-55
2023/08/08 12:43:16;;;;;;;4.50;1.40;;;;;;;;;;4991665;28;20547;-55
2023/08/08 12:45:44;;;;;;;2.13;1.17;;;;;;;;;;4991245;28;20444;-56
2023/08/08 12:48:11;;;;;;;2.10;0.90;;;;;;;;;;4989261;28;20436;-55
2023/08/08 12:50:38;;;;;;;1.80;0.73;;;;;;;;;;4990550;28;20551;-55
2023/08/08 12:53:06;;;;;;;2.20;1.33;;;;;;;;;;4991631;28;20522;-54
2023/08/08 12:55:35;;;;;;;2.10;0.80;;;;;;;;;;4991483;28;20471;-51
2023/08/08 12:58:03;;;;;;;2.57;1.30;;;;;;;;;;4991596;28;20436;-54
2023/08/08 13:00:30;;;;;;;2.43;0.97;;;;;;;;;;4991129;28;20471;-54
2023/08/08 13:02:58;;;;;;;2.03;1.20;;;;;;;;;;4991411;28;20495;-53
2023/08/08 13:05:25;;;;;;;2.23;1.00;;;;;;;;;;4991687;28;20436;-53
2023/08/08 13:07:52;;;;;;;2.10;1.00;;;;;;;;;;4991902;28;20495;-54
2023/08/08 13:10:20;;;;;;;2.67;0.90;;;;;;;;;;4990528;28;20846;-54
2023/08/08 13:12:48;;;;;;;2.10;1.03;;;;;;;;;;4990229;28;20464;-55
2023/08/08 13:15:16;;;;;;;2.50;1.20;;;;;;;;;;4992090;28;20928;-54
2023/08/08 13:17:43;;;;;;;2.20;1.10;;;;;;;;;;4991964;28;20475;-56
2023/08/08 13:20:12;;;;;;;2.50;1.20;;;;;;;;;;4988911;28;20476;-56
2023/08/08 13:22:39;;;;;;;1.97;0.97;;;;;;;;;;4989640;28;20440;-54
2023/08/08 13:25:07;;;;;;;2.00;0.93;;;;;;;;;;4990263;28;20472;-54
2023/08/08 13:27:34;;;;;;;4.13;1.50;;;;;;;;;;4990139;28;20531;-56
2023/08/08 13:30:03;;;;;;;1.70;0.80;;;;;;;;;;4989615;28;20551;-54
2023/08/08 13:32:30;;;;;;;2.20;1.10;;;;;;;;;;4989525;28;20559;-55
2023/08/08 13:34:58;;;;;;;2.07;0.97;;;;;;;;;;4991357;28;20530;-56
2023/08/08 13:37:25;;;;;;;3.20;1.23;;;;;;;;;;4990874;28;20498;-55
2023/08/08 13:39:52;;;;;;;3.00;1.40;;;;;;;;;;4991401;28;20456;-54
2023/08/08 13:42:19;;;;;;;2.03;1.00;;;;;;;;;;4990934;28;20960;-53
2023/08/08 13:44:46;;;;;;;2.03;1.13;;;;;;;;;;4990664;28;20577;-53
2023/08/08 13:47:15;;;;;;;2.67;1.30;;;;;;;;;;4990580;28;20523;-55
2023/08/08 13:49:42;;;;;;;2.63;1.17;;;;;;;;;;4990491;28;20500;-54
2023/08/08 13:52:10;;;;;;;2.20;1.07;;;;;;;;;;4990383;28;20471;-54
2023/08/08 13:54:37;;;;;;;2.00;0.90;;;;;;;;;;4990983;28;20443;-54
2023/08/08 13:57:05;;;;;;;3.27;1.30;;;;;;;;;;4991558;28;20471;-55
2023/08/08 13:59:32;;;;;;;3.30;1.60;;;;;;;;;;4991134;28;20495;-54
2023/08/08 14:01:59;;;;;;;2.10;1.10;;;;;;;;;;4991116;28;20527;-55
2023/08/08 14:04:28;;;;;;;3.17;1.13;;;;;;;;;;4995291;28;21083;-54
2023/08/08 14:06:55;;;;;;;2.50;1.53;;;;;;;;;;4995433;28;20436;-54
2023/08/08 14:09:22;;;;;;;2.30;1.07;;;;;;;;;;4994933;28;20550;-56
2023/08/08 14:11:49;;;;;;;2.13;1.17;;;;;;;;;;4994974;28;20519;-55
2023/08/08 14:14:17;;;;;;;3.03;1.53;;;;;;;;;;4995212;28;20467;-54
2023/08/08 14:16:44;;;;;;;2.20;1.10;;;;;;;;;;4995037;28;20464;-54
2023/08/08 14:19:12;;;;;;;3.20;1.50;;;;;;;;;;5005057;23;20526;-54
2023/08/08 14:21:41;;;;;;;2.13;0.80;;;;;;;;;;5013545;28;20530;-56
2023/08/08 14:24:08;;;;;;;2.00;1.17;;;;;;;;;;5014423;28;20548;-55
2023/08/08 14:26:36;;;;;;;2.20;1.13;;;;;;;;;;5014319;28;20505;-56
2023/08/08 14:29:03;;;;;;;2.23;1.33;;;;;;;;;;5017059;28;20958;-56
2023/08/08 14:31:30;;;;;;;2.37;1.37;;;;;;;;;;5033533;28;20445;-56
2023/08/08 14:33:57;;;;;;;2.10;0.93;;;;;;;;;;5033356;28;20445;-57
2023/08/08 14:36:25;;;;;;;2.17;1.20;;;;;;;;;;5034028;28;20484;-54
2023/08/08 14:38:53;;;;;;;2.10;1.10;;;;;;;;;;5033063;28;20442;-54
2023/08/08 14:41:21;;;;;;;2.80;1.40;;;;;;;;;;5033311;28;20442;-55
2023/08/08 14:43:48;;;;;;;2.60;1.47;;;;;;;;;;5033074;28;20899;-54
2023/08/08 14:46:15;;;;;;;2.90;1.10;;;;;;;;;;5032260;28;20524;-54
2023/08/08 14:48:42;;;;;;;2.00;1.23;;;;;;;;;;5033038;28;20195;-53